Mountain Home, Idaho
Current Conditions -  °F | °C
As of 6:58 PM on Monday 20 Oct 2014 (Local Time) from KMUO Reporting Station
Clear Clear  
Wind Chill: 72°   Ceiling: Unl
Heat Index: 72°   Visibility: 10mi
Dew Point: 37°   Wind: 5mph
Humidity: 28%   Direction: 220°SW
Pressure: 29.7"   Gusts: NA
Location:  43.13°N, 115.69°W
Report Text: KMUO 210058Z AUTO 22004KT 10SM CLR 22/03 A2970 RMK AO2 SLP042 T02230029
Loading
Personal Weather Stations






























Interactive Weather Map
Tropical Storm Tracking
New forecast layout! Learn more

10-Day Weather Forecast

Advertisements
Track Severe Weather on mobile